createdAt,value
2018-03-03T00:01:31.546Z,91.80
2018-03-03T00:03:59.822Z,93.80
2018-03-03T00:06:28.112Z,91.40
2018-03-03T00:08:55.632Z,91.40
2018-03-03T00:11:23.179Z,91.60
2018-03-03T00:13:50.719Z,91.80
2018-03-03T00:16:18.245Z,92.70
2018-03-03T00:18:45.770Z,93.00
2018-03-03T00:21:13.274Z,94.00
2018-03-03T00:23:40.817Z,92.20
2018-03-03T00:26:08.318Z,92.60
2018-03-03T00:28:35.853Z,88.40
2018-03-03T00:31:03.377Z,90.30
2018-03-03T00:33:31.688Z,92.50
2018-03-03T00:35:59.213Z,92.50
2018-03-03T00:38:27.585Z,86.10
2018-03-03T00:40:55.860Z,93.20
2018-03-03T00:43:24.164Z,90.60
2018-03-03T00:45:51.685Z,90.60
2018-03-03T00:48:19.248Z,92.20
2018-03-03T00:50:47.534Z,90.40
2018-03-03T00:53:15.842Z,91.40
2018-03-03T00:55:43.359Z,91.30
2018-03-03T00:58:11.659Z,92.80
2018-03-03T01:00:39.161Z,92.80
2018-03-03T01:03:06.697Z,94.30
2018-03-03T01:05:34.234Z,91.30
2018-03-03T01:08:01.773Z,90.90
2018-03-03T01:10:30.071Z,90.00
2018-03-03T01:12:57.651Z,90.00
2018-03-03T01:15:25.193Z,89.00
2018-03-03T01:17:52.728Z,92.90
2018-03-03T01:20:21.030Z,91.30
2018-03-03T01:22:48.546Z,91.20
2018-03-03T01:25:16.079Z,91.80
2018-03-03T01:27:43.590Z,91.00
2018-03-03T01:30:11.877Z,88.80
2018-03-03T01:32:39.378Z,88.80
2018-03-03T01:35:06.918Z,90.20
2018-03-03T01:37:34.441Z,86.70
2018-03-03T01:40:02.763Z,87.50
2018-03-03T01:42:30.284Z,87.30
2018-03-03T01:44:57.818Z,90.20
2018-03-03T01:47:25.326Z,90.00
2018-03-03T01:49:52.886Z,88.20
2018-03-03T01:52:20.413Z,91.00
2018-03-03T01:54:48.712Z,90.30
2018-03-03T01:57:16.232Z,90.30
2018-03-03T01:59:43.764Z,91.70
2018-03-03T02:02:11.281Z,92.20
2018-03-03T02:04:38.824Z,91.20
2018-03-03T02:07:07.148Z,92.90
2018-03-03T02:09:34.686Z,92.80
2018-03-03T02:12:04.165Z,93.00
2018-03-03T02:14:31.716Z,92.70
2018-03-03T02:16:59.271Z,94.50
2018-03-03T02:19:27.683Z,91.40
2018-03-03T02:21:55.224Z,91.40
2018-03-03T02:24:23.520Z,92.00
2018-03-03T02:26:51.076Z,91.90
2018-03-03T02:29:18.604Z,94.90
2018-03-03T02:31:46.922Z,94.60
2018-03-03T02:34:14.449Z,94.60
2018-03-03T02:36:42.786Z,92.40
2018-03-03T02:39:10.298Z,92.50
2018-03-03T02:41:37.847Z,93.70
2018-03-03T02:44:06.204Z,94.10
2018-03-03T02:46:33.746Z,94.10
2018-03-03T02:49:01.287Z,94.30
2018-03-03T02:51:28.810Z,93.20
2018-03-03T02:53:56.345Z,92.80
2018-03-03T02:56:24.659Z,93.40
2018-03-03T02:58:52.182Z,93.40
2018-03-03T03:01:20.507Z,93.10
2018-03-03T03:03:48.019Z,93.00
2018-03-03T03:06:16.294Z,94.80
2018-03-03T03:08:44.618Z,95.40
2018-03-03T03:11:12.131Z,95.30
2018-03-03T03:13:40.435Z,94.50
2018-03-03T03:16:07.989Z,94.40
2018-03-03T03:18:35.515Z,94.70
2018-03-03T03:21:03.038Z,93.70
2018-03-03T03:23:30.552Z,94.30
2018-03-03T03:25:58.860Z,95.60
2018-03-03T03:28:26.378Z,95.60
2018-03-03T03:30:54.680Z,95.50
2018-03-03T03:33:22.221Z,95.50
2018-03-03T03:35:50.498Z,95.90
2018-03-03T03:38:18.847Z,95.10
2018-03-03T03:40:46.372Z,95.10
2018-03-03T03:43:13.896Z,95.40
2018-03-03T03:45:42.187Z,95.70
2018-03-03T03:48:09.694Z,95.70
2018-03-03T03:50:37.235Z,94.40
2018-03-03T03:53:04.747Z,92.90
2018-03-03T03:55:33.043Z,95.50
2018-03-03T03:58:00.615Z,95.40
2018-03-03T04:00:28.130Z,96.00
2018-03-03T04:02:56.419Z,93.90
2018-03-03T04:05:24.735Z,94.20
2018-03-03T04:07:52.268Z,94.30
2018-03-03T04:10:19.793Z,95.80
2018-03-03T04:12:48.121Z,95.80
2018-03-03T04:15:15.623Z,95.40
2018-03-03T04:17:43.134Z,96.40
2018-03-03T04:20:10.691Z,95.80
2018-03-03T04:22:38.199Z,96.70
2018-03-03T04:25:05.719Z,97.00
2018-03-03T04:27:33.299Z,98.00
2018-03-03T04:30:00.927Z,98.70
2018-03-03T04:32:28.451Z,98.40
2018-03-03T04:34:56.796Z,99.00
2018-03-03T04:37:24.311Z,99.00
2018-03-03T04:39:51.830Z,99.30
2018-03-03T04:42:19.380Z,99.40
2018-03-03T04:44:46.918Z,99.90
2018-03-03T04:47:14.449Z,99.90
2018-03-03T04:49:42.001Z,99.90
2018-03-03T04:52:09.522Z,99.80
2018-03-03T04:54:37.050Z,99.70
2018-03-03T04:57:04.592Z,99.30
2018-03-03T04:59:33.035Z,99.90
2018-03-03T05:02:01.795Z,99.90
2018-03-03T05:04:29.846Z,99.90
2018-03-03T05:06:59.873Z,99.90
2018-03-03T05:09:27.450Z,99.90
2018-03-03T05:11:54.985Z,99.90
2018-03-03T05:14:28.119Z,99.90
2018-03-03T05:17:06.334Z,99.90
2018-03-03T05:19:40.369Z,99.90
2018-03-03T05:22:13.606Z,99.90
2018-03-03T05:28:12.132Z,99.90
2018-03-03T05:30:46.172Z,99.90
2018-03-03T05:33:19.462Z,99.90
2018-03-03T05:35:52.609Z,99.90
2018-03-03T05:38:25.773Z,99.90
2018-03-03T05:40:59.026Z,99.90
2018-03-03T05:43:33.068Z,99.90
2018-03-03T05:49:04.182Z,99.90
2018-03-03T05:54:44.250Z,99.90
2018-03-03T05:57:15.745Z,99.90
2018-03-03T06:02:55.650Z,99.90
2018-03-03T06:05:23.188Z,99.90
2018-03-03T06:07:56.316Z,99.90
2018-03-03T06:10:35.607Z,99.90
2018-03-03T06:13:03.134Z,99.90
2018-03-03T06:15:31.438Z,99.90
2018-03-03T06:17:58.994Z,99.90
2018-03-03T06:20:26.518Z,99.90
2018-03-03T06:22:54.813Z,99.90
2018-03-03T06:25:22.355Z,99.90
2018-03-03T06:27:50.635Z,99.90
2018-03-03T06:30:18.927Z,99.90
2018-03-03T06:32:46.491Z,99.90
2018-03-03T06:35:14.014Z,99.90
2018-03-03T06:37:41.527Z,99.90
2018-03-03T06:40:09.079Z,99.90
2018-03-03T06:42:36.624Z,99.90
2018-03-03T06:45:04.154Z,99.90
2018-03-03T06:47:31.707Z,99.90
2018-03-03T06:49:59.240Z,99.90
2018-03-03T06:52:26.747Z,99.90
2018-03-03T06:54:55.061Z,99.90
2018-03-03T06:57:22.576Z,99.90
2018-03-03T06:59:50.871Z,99.90
2018-03-03T07:02:18.422Z,99.90
2018-03-03T07:04:46.697Z,99.90
2018-03-03T07:07:15.013Z,99.90
2018-03-03T07:09:42.546Z,99.90
2018-03-03T07:12:10.080Z,99.90
2018-03-03T07:14:38.400Z,99.90
2018-03-03T07:17:06.285Z,99.90
2018-03-03T07:19:33.824Z,99.90
2018-03-03T07:22:01.352Z,99.90
2018-03-03T07:24:29.657Z,99.90
2018-03-03T07:26:57.177Z,99.90
2018-03-03T07:29:25.466Z,99.90
2018-03-03T07:31:53.777Z,99.90
2018-03-03T07:34:21.310Z,99.90
2018-03-03T07:36:48.834Z,99.90
2018-03-03T07:39:16.389Z,99.90
2018-03-03T07:41:43.911Z,99.90
2018-03-03T07:44:11.438Z,99.90
2018-03-03T07:46:39.753Z,99.90
2018-03-03T07:49:07.278Z,99.90
2018-03-03T07:51:34.859Z,99.90
2018-03-03T07:54:02.408Z,99.90
2018-03-03T07:56:41.764Z,99.90
2018-03-03T07:59:09.327Z,99.90
2018-03-03T08:01:36.831Z,99.90
2018-03-03T08:04:05.102Z,99.90
2018-03-03T08:06:32.672Z,99.90
2018-03-03T08:09:00.942Z,99.90
2018-03-03T08:11:29.218Z,99.90
2018-03-03T08:13:57.556Z,99.90
2018-03-03T08:16:25.050Z,99.90
2018-03-03T08:18:52.584Z,99.90
2018-03-03T08:21:20.133Z,99.90
2018-03-03T08:23:47.647Z,99.90
2018-03-03T08:26:15.168Z,99.90
2018-03-03T08:28:42.729Z,99.90
2018-03-03T08:31:10.245Z,99.90
2018-03-03T08:33:37.765Z,99.90
2018-03-03T08:36:06.093Z,99.90
2018-03-03T08:38:33.705Z,99.90
2018-03-03T08:41:01.995Z,99.90
2018-03-03T08:43:30.317Z,99.90
2018-03-03T08:45:57.827Z,99.90
2018-03-03T08:48:26.114Z,99.90
2018-03-03T08:50:53.627Z,99.90
2018-03-03T08:53:21.158Z,99.90
2018-03-03T08:55:48.677Z,99.90
2018-03-03T08:58:16.977Z,99.90
2018-03-03T09:00:44.536Z,99.90
2018-03-03T09:03:12.054Z,99.90
2018-03-03T09:05:39.578Z,99.90
2018-03-03T09:08:07.091Z,99.90
2018-03-03T09:10:35.425Z,99.90
2018-03-03T09:13:02.955Z,99.90
2018-03-03T09:15:30.551Z,99.90
2018-03-03T09:17:58.079Z,99.90
2018-03-03T09:20:25.579Z,99.90
2018-03-03T09:22:53.107Z,99.90
2018-03-03T09:25:21.413Z,99.90
2018-03-03T09:27:48.971Z,99.90
2018-03-03T09:30:16.497Z,99.90
2018-03-03T09:32:44.128Z,99.90
2018-03-03T09:35:11.667Z,99.90
2018-03-03T09:37:39.944Z,99.90
2018-03-03T09:40:08.246Z,99.90
2018-03-03T09:42:35.779Z,99.90
2018-03-03T09:45:04.082Z,99.90
2018-03-03T09:47:31.592Z,99.90
2018-03-03T09:49:59.130Z,99.90
2018-03-03T09:52:26.666Z,99.90
2018-03-03T09:54:54.183Z,99.90
2018-03-03T09:57:22.483Z,99.90
2018-03-03T09:59:50.002Z,99.90
2018-03-03T10:02:17.557Z,99.90
2018-03-03T10:04:45.129Z,99.90
2018-03-03T10:07:12.654Z,99.90
2018-03-03T10:09:40.200Z,99.90
2018-03-03T10:12:07.731Z,99.90
2018-03-03T10:14:36.070Z,99.90
2018-03-03T10:17:03.583Z,99.90
2018-03-03T10:19:31.126Z,99.90
2018-03-03T10:21:58.735Z,99.90
2018-03-03T10:24:26.213Z,99.90
2018-03-03T10:26:53.760Z,99.90
2018-03-03T10:29:21.375Z,99.90
2018-03-03T10:31:48.922Z,99.90
2018-03-03T10:34:17.213Z,99.90
2018-03-03T10:36:44.727Z,99.90
2018-03-03T10:39:12.295Z,99.90
2018-03-03T10:41:39.833Z,99.90
2018-03-03T10:44:07.359Z,99.90
2018-03-03T10:46:34.889Z,99.90
2018-03-03T10:49:03.209Z,99.90
2018-03-03T10:51:30.747Z,99.90
2018-03-03T10:53:58.263Z,99.90
2018-03-03T10:56:25.791Z,99.90
2018-03-03T10:58:53.308Z,99.90
2018-03-03T11:01:20.846Z,99.90
2018-03-03T11:03:49.128Z,99.90
2018-03-03T11:06:17.473Z,99.90
2018-03-03T11:08:45.009Z,99.90
2018-03-03T11:11:12.516Z,99.90
2018-03-03T11:13:40.820Z,99.90
2018-03-03T11:16:08.336Z,99.90
2018-03-03T11:18:35.885Z,99.90
2018-03-03T11:21:03.418Z,99.90
2018-03-03T11:23:30.970Z,99.90
2018-03-03T11:25:58.487Z,99.90
2018-03-03T11:28:26.763Z,99.90
2018-03-03T11:30:55.077Z,99.90
2018-03-03T11:33:22.585Z,99.90
2018-03-03T11:35:50.905Z,99.90
2018-03-03T11:38:18.430Z,99.90
2018-03-03T11:40:45.974Z,99.90
2018-03-03T11:43:13.512Z,99.90
2018-03-03T11:45:41.011Z,99.90
2018-03-03T11:48:08.557Z,99.90
2018-03-03T11:50:36.062Z,99.90
2018-03-03T11:53:03.616Z,99.90
2018-03-03T11:55:31.142Z,99.90
2018-03-03T11:57:58.679Z,99.90
2018-03-03T12:00:26.200Z,99.90
2018-03-03T12:02:53.720Z,99.90
2018-03-03T12:05:22.071Z,99.90
2018-03-03T12:07:49.560Z,99.90
2018-03-03T12:10:17.884Z,99.90
2018-03-03T12:12:45.403Z,99.90
2018-03-03T12:15:13.690Z,99.90
2018-03-03T12:17:41.263Z,99.90
2018-03-03T12:20:08.792Z,99.90
2018-03-03T12:22:37.095Z,99.90
2018-03-03T12:25:04.624Z,99.90
2018-03-03T12:27:32.126Z,99.90
2018-03-03T12:29:59.664Z,99.90
2018-03-03T12:32:27.177Z,99.90
2018-03-03T12:34:54.741Z,99.90
2018-03-03T12:37:22.259Z,99.90
2018-03-03T12:39:49.765Z,99.90
2018-03-03T12:42:17.324Z,99.90
2018-03-03T12:44:44.852Z,99.90
2018-03-03T12:47:12.432Z,99.90
2018-03-03T12:49:39.951Z,99.90
2018-03-03T12:52:07.463Z,99.90
2018-03-03T12:54:35.780Z,99.90
2018-03-03T12:57:03.292Z,99.90
2018-03-03T12:59:30.846Z,99.90
2018-03-03T13:01:58.400Z,99.90
2018-03-03T13:04:25.929Z,99.90
2018-03-03T13:06:53.693Z,99.90
2018-03-03T13:09:22.056Z,99.90
2018-03-03T13:11:49.779Z,99.90
2018-03-03T13:14:17.399Z,99.90
2018-03-03T13:16:44.977Z,99.90
2018-03-03T13:19:13.317Z,99.90
2018-03-03T13:21:40.821Z,99.90
2018-03-03T13:24:08.632Z,99.90
2018-03-03T13:26:36.454Z,99.90
2018-03-03T13:29:03.988Z,99.90
2018-03-03T13:31:31.518Z,99.90
2018-03-03T13:33:59.091Z,99.90
2018-03-03T13:36:26.754Z,99.90
2018-03-03T13:38:54.335Z,99.90
2018-03-03T13:41:21.860Z,99.90
2018-03-03T13:43:49.366Z,99.90
2018-03-03T13:46:16.909Z,99.90
2018-03-03T13:48:44.427Z,99.90
2018-03-03T13:51:11.977Z,99.90
2018-03-03T13:53:39.508Z,99.90
2018-03-03T13:56:07.020Z,99.90
2018-03-03T13:58:34.558Z,99.90
2018-03-03T14:01:02.140Z,99.90
2018-03-03T14:03:29.941Z,99.90
2018-03-03T14:05:58.431Z,99.90
2018-03-03T14:08:25.996Z,99.90
2018-03-03T14:10:53.500Z,99.90
2018-03-03T14:13:21.046Z,99.90
2018-03-03T14:15:48.622Z,99.90
2018-03-03T14:18:16.311Z,99.90
2018-03-03T14:20:44.153Z,99.90
2018-03-03T14:23:11.790Z,99.90
2018-03-03T14:25:39.303Z,99.90
2018-03-03T14:28:07.046Z,99.90
2018-03-03T14:30:34.608Z,99.90
2018-03-03T14:33:02.338Z,99.90
2018-03-03T14:35:29.885Z,99.90
2018-03-03T14:37:58.165Z,99.90
2018-03-03T14:40:26.583Z,99.90
2018-03-03T14:42:54.309Z,99.90
2018-03-03T14:45:22.578Z,99.90
2018-03-03T14:47:51.050Z,99.90
2018-03-03T14:50:18.624Z,99.90
2018-03-03T14:52:46.976Z,99.90
2018-03-03T14:55:14.496Z,99.90
2018-03-03T14:57:42.801Z,99.90
2018-03-03T15:00:10.344Z,99.90
2018-03-03T15:02:37.875Z,99.90
2018-03-03T15:05:05.409Z,99.90
2018-03-03T15:07:33.705Z,99.90
2018-03-03T15:10:01.210Z,99.90
2018-03-03T15:12:28.751Z,99.90
2018-03-03T15:14:56.369Z,99.90
2018-03-03T15:17:24.642Z,99.90
2018-03-03T15:19:52.962Z,99.90
2018-03-03T15:22:20.590Z,99.90
2018-03-03T15:24:48.869Z,99.90
2018-03-03T15:27:17.164Z,99.90
2018-03-03T15:29:44.661Z,99.90
2018-03-03T15:32:12.162Z,99.90
2018-03-03T15:34:39.686Z,99.90
2018-03-03T15:37:07.223Z,99.90
2018-03-03T15:39:34.780Z,99.90
2018-03-03T15:42:02.320Z,99.90
2018-03-03T15:44:29.831Z,99.90
2018-03-03T15:46:58.128Z,99.90
2018-03-03T15:49:25.683Z,99.90
2018-03-03T15:51:53.996Z,99.90
2018-03-03T15:54:21.579Z,99.90
2018-03-03T15:56:49.156Z,99.90
2018-03-03T15:59:16.700Z,99.90
2018-03-03T16:01:44.273Z,99.90
2018-03-03T16:04:11.771Z,99.90
2018-03-03T16:06:39.337Z,99.90
2018-03-03T16:09:07.075Z,99.90
2018-03-03T16:11:34.657Z,99.90
2018-03-03T16:14:02.176Z,99.90
2018-03-03T16:16:29.686Z,99.90
2018-03-03T16:18:57.255Z,99.90
2018-03-03T16:21:24.923Z,99.90
2018-03-03T16:23:52.448Z,99.90
2018-03-03T16:26:20.033Z,99.90
2018-03-03T16:28:47.734Z,99.90
2018-03-03T16:31:15.256Z,99.90
2018-03-03T16:33:42.812Z,99.90
2018-03-03T16:36:10.330Z,99.90
2018-03-03T16:38:38.629Z,99.90
2018-03-03T16:41:06.173Z,99.90
2018-03-03T16:43:34.451Z,99.90
2018-03-03T16:46:02.746Z,99.90
2018-03-03T16:48:30.319Z,99.90
2018-03-03T16:50:57.837Z,99.90
2018-03-03T16:53:26.137Z,99.90
2018-03-03T16:55:53.694Z,99.90
2018-03-03T16:58:21.202Z,99.90
2018-03-03T17:00:48.958Z,99.90
2018-03-03T17:03:16.483Z,99.90
2018-03-03T17:05:44.006Z,99.90
2018-03-03T17:08:12.286Z,99.90
2018-03-03T17:10:40.595Z,99.90
2018-03-03T17:13:08.130Z,99.90
2018-03-03T17:15:36.398Z,99.90
2018-03-03T17:18:04.693Z,99.90
2018-03-03T17:20:32.210Z,99.90
2018-03-03T17:22:59.727Z,99.90
2018-03-03T17:25:27.272Z,99.90
2018-03-03T17:27:54.907Z,99.90
2018-03-03T17:30:24.332Z,99.90
2018-03-03T17:32:51.858Z,99.90
2018-03-03T17:35:19.490Z,99.90
2018-03-03T17:37:47.027Z,99.90
2018-03-03T17:40:14.552Z,99.90
2018-03-03T17:42:42.882Z,99.90
2018-03-03T17:45:10.378Z,99.90
2018-03-03T17:47:38.025Z,99.90
2018-03-03T17:50:05.554Z,99.90
2018-03-03T17:52:33.050Z,99.90
2018-03-03T17:55:00.547Z,99.90
2018-03-03T17:57:28.203Z,99.90
2018-03-03T17:59:55.736Z,99.90
2018-03-03T18:02:23.267Z,99.90
2018-03-03T18:04:50.889Z,99.90
2018-03-03T18:07:18.453Z,99.90
2018-03-03T18:09:45.954Z,99.90
2018-03-03T18:12:13.494Z,99.90
2018-03-03T18:14:41.039Z,99.90
2018-03-03T18:17:08.574Z,99.90
2018-03-03T18:19:36.876Z,99.90
2018-03-03T18:22:04.404Z,99.90
2018-03-03T18:24:37.455Z,99.90
2018-03-03T18:27:04.971Z,99.90
2018-03-03T18:29:32.538Z,99.90
2018-03-03T18:32:00.227Z,99.90
2018-03-03T18:34:27.740Z,99.90
2018-03-03T18:36:55.280Z,99.90
2018-03-03T18:39:23.604Z,99.90
2018-03-03T18:41:51.133Z,99.90
2018-03-03T18:44:18.630Z,99.90
2018-03-03T18:46:46.174Z,99.90
2018-03-03T18:49:13.686Z,99.90
2018-03-03T18:51:42.002Z,99.90
2018-03-03T18:54:09.563Z,99.90
2018-03-03T18:56:37.093Z,99.90
2018-03-03T18:59:04.635Z,99.90
2018-03-03T19:01:32.230Z,99.90
2018-03-03T19:03:59.744Z,99.90
2018-03-03T19:06:27.268Z,99.90
2018-03-03T19:08:54.812Z,99.90
2018-03-03T19:11:22.328Z,99.90
2018-03-03T19:13:49.836Z,99.90
2018-03-03T19:16:17.392Z,99.90
2018-03-03T19:18:44.930Z,99.90
2018-03-03T19:21:12.451Z,99.90
2018-03-03T19:23:39.988Z,99.90
2018-03-03T19:26:08.285Z,99.90
2018-03-03T19:28:35.803Z,99.90
2018-03-03T19:31:03.354Z,99.90
2018-03-03T19:33:30.872Z,99.90
2018-03-03T19:35:58.397Z,99.90
2018-03-03T19:38:25.947Z,99.90
2018-03-03T19:40:53.568Z,99.90
2018-03-03T19:43:21.848Z,99.90
2018-03-03T19:45:50.143Z,99.90
2018-03-03T19:48:17.672Z,99.90
2018-03-03T19:50:45.949Z,99.90
2018-03-03T19:53:13.538Z,99.90
2018-03-03T19:55:41.181Z,99.90
2018-03-03T19:58:08.724Z,99.90
2018-03-03T20:00:37.048Z,99.90
2018-03-03T20:03:04.572Z,99.90
2018-03-03T20:05:32.871Z,99.90
2018-03-03T20:08:00.645Z,99.90
2018-03-03T20:10:28.179Z,99.90
2018-03-03T20:12:55.782Z,99.90
2018-03-03T20:15:23.319Z,99.90
2018-03-03T20:17:50.827Z,99.90
2018-03-03T20:20:18.458Z,99.90
2018-03-03T20:22:46.077Z,99.90
2018-03-03T20:25:13.607Z,99.90
2018-03-03T20:27:41.125Z,99.90
2018-03-03T20:30:08.667Z,99.90
2018-03-03T20:32:36.187Z,99.90
2018-03-03T20:35:03.839Z,99.90
2018-03-03T20:37:31.379Z,99.90
2018-03-03T20:39:58.898Z,99.90
2018-03-03T20:42:26.406Z,99.90
2018-03-03T20:44:53.960Z,99.90
2018-03-03T20:47:21.477Z,99.90
2018-03-03T20:49:48.996Z,99.90
2018-03-03T20:52:16.565Z,99.90
2018-03-03T20:54:44.848Z,99.90
2018-03-03T20:57:13.121Z,99.90
2018-03-03T20:59:41.418Z,99.90
2018-03-03T21:02:08.951Z,99.90
2018-03-03T21:04:37.240Z,99.90
2018-03-03T21:07:05.549Z,99.90
2018-03-03T21:09:33.080Z,99.90
2018-03-03T21:12:04.585Z,99.90
2018-03-03T21:14:32.905Z,99.90
2018-03-03T21:17:01.205Z,99.90
2018-03-03T21:19:28.734Z,99.90
2018-03-03T21:21:57.030Z,99.90
2018-03-03T21:24:24.545Z,99.90
2018-03-03T21:26:52.088Z,99.90
2018-03-03T21:29:19.600Z,99.90
2018-03-03T21:31:47.131Z,99.90
2018-03-03T21:34:14.678Z,99.90
2018-03-03T21:36:42.756Z,99.90
2018-03-03T21:39:10.273Z,99.90
2018-03-03T21:41:37.813Z,99.90
2018-03-03T21:44:05.358Z,99.90
2018-03-03T21:46:33.780Z,99.90
2018-03-03T21:49:01.326Z,99.90
2018-03-03T21:51:28.838Z,99.90
2018-03-03T21:53:57.126Z,99.90
2018-03-03T21:56:25.786Z,99.90
2018-03-03T21:58:53.367Z,99.90
2018-03-03T22:01:21.780Z,99.90
2018-03-03T22:03:49.503Z,99.90
2018-03-03T22:06:17.067Z,99.90
2018-03-03T22:08:45.413Z,99.90
2018-03-03T22:11:12.968Z,99.90
2018-03-03T22:13:40.488Z,99.90
2018-03-03T22:16:08.129Z,99.90
2018-03-03T22:18:36.442Z,99.90
2018-03-03T22:21:03.956Z,99.90
2018-03-03T22:23:32.226Z,99.90
2018-03-03T22:25:59.790Z,99.90
2018-03-03T22:28:28.079Z,99.90
2018-03-03T22:30:55.789Z,99.90
2018-03-03T22:33:23.359Z,99.90
2018-03-03T22:38:24.857Z,99.90
2018-03-03T22:40:53.143Z,99.90
2018-03-03T22:43:21.409Z,99.90
2018-03-03T22:45:49.788Z,99.90
2018-03-03T22:48:18.059Z,99.90
2018-03-03T22:50:46.384Z,99.90
2018-03-03T22:53:13.921Z,99.90
2018-03-03T22:55:41.427Z,99.90
2018-03-03T22:58:08.962Z,99.90
2018-03-03T23:00:36.507Z,99.90
2018-03-03T23:03:04.135Z,99.90
2018-03-03T23:05:31.705Z,99.90
2018-03-03T23:07:59.991Z,99.90
2018-03-03T23:10:28.275Z,99.90
2018-03-03T23:12:55.821Z,99.90
2018-03-03T23:15:24.104Z,99.90
2018-03-03T23:17:51.636Z,99.90
2018-03-03T23:20:19.142Z,99.90
2018-03-03T23:22:46.669Z,99.90
2018-03-03T23:25:14.957Z,99.90
2018-03-03T23:27:42.653Z,99.90
2018-03-03T23:30:10.162Z,99.90
2018-03-03T23:32:38.467Z,99.90
2018-03-03T23:35:05.998Z,99.90
2018-03-03T23:37:34.278Z,99.90
2018-03-03T23:40:02.570Z,99.90
2018-03-03T23:42:30.079Z,99.90
2018-03-03T23:44:57.624Z,99.90
2018-03-03T23:47:25.148Z,99.90
2018-03-03T23:49:52.661Z,99.90
2018-03-03T23:52:20.197Z,99.90
2018-03-03T23:54:47.720Z,99.90
2018-03-03T23:57:15.240Z,99.90
2018-03-03T23:59:42.762Z,99.90
